createdAt,value
2018-05-06T00:00:44.670Z,99.90
2018-05-06T00:03:12.250Z,99.90
2018-05-06T00:05:39.832Z,99.90
2018-05-06T00:08:07.415Z,99.90
2018-05-06T00:10:34.927Z,99.90
2018-05-06T00:13:02.575Z,99.90
2018-05-06T00:15:30.103Z,99.90
2018-05-06T00:17:57.737Z,99.90
2018-05-06T00:20:25.268Z,99.90
2018-05-06T00:22:53.644Z,99.90
2018-05-06T00:25:21.934Z,99.90
2018-05-06T00:27:50.332Z,99.90
2018-05-06T00:30:17.977Z,99.90
2018-05-06T00:32:46.423Z,99.90
2018-05-06T00:35:14.052Z,99.90
2018-05-06T00:37:41.749Z,99.90
2018-05-06T00:40:10.195Z,99.90
2018-05-06T00:42:38.241Z,99.90
2018-05-06T00:45:05.789Z,99.90
2018-05-06T00:47:33.319Z,99.90
2018-05-06T00:50:00.804Z,99.90
2018-05-06T00:52:29.070Z,99.90
2018-05-06T00:54:57.341Z,99.90
2018-05-06T00:57:24.954Z,99.90
2018-05-06T00:59:52.469Z,99.90
2018-05-06T01:02:20.751Z,99.90
2018-05-06T01:04:48.591Z,99.90
2018-05-06T01:07:16.943Z,99.90
2018-05-06T01:09:44.447Z,99.90
2018-05-06T01:12:12.764Z,99.90
2018-05-06T01:14:40.295Z,99.90
2018-05-06T01:17:07.827Z,99.90
2018-05-06T01:19:36.115Z,99.90
2018-05-06T01:22:03.667Z,99.90
2018-05-06T01:24:31.264Z,99.90
2018-05-06T01:26:58.761Z,99.90
2018-05-06T01:29:26.270Z,99.90
2018-05-06T01:31:53.828Z,99.90
2018-05-06T01:34:21.384Z,99.90
2018-05-06T01:36:49.011Z,99.90
2018-05-06T01:39:17.323Z,99.90
2018-05-06T01:41:44.823Z,99.90
2018-05-06T01:44:12.336Z,99.90
2018-05-06T01:46:39.908Z,99.90
2018-05-06T01:49:07.425Z,99.90
2018-05-06T01:51:35.689Z,99.90
2018-05-06T01:54:03.183Z,99.90
2018-05-06T01:56:30.704Z,99.90
2018-05-06T01:58:58.253Z,99.90
2018-05-06T02:01:25.773Z,99.90
2018-05-06T02:03:53.290Z,99.90
2018-05-06T02:06:21.628Z,99.90
2018-05-06T02:08:49.184Z,99.90
2018-05-06T02:11:16.727Z,99.90
2018-05-06T02:13:44.305Z,99.90
2018-05-06T02:16:11.864Z,99.90
2018-05-06T02:18:39.356Z,99.90
2018-05-06T02:21:07.645Z,99.90
2018-05-06T02:23:35.954Z,99.90
2018-05-06T02:26:03.509Z,99.90
2018-05-06T02:28:31.035Z,99.90
2018-05-06T02:30:58.590Z,99.90
2018-05-06T02:33:26.891Z,99.90
2018-05-06T02:35:54.433Z,99.90
2018-05-06T02:38:21.941Z,99.90
2018-05-06T02:40:49.469Z,99.90
2018-05-06T02:43:16.973Z,99.90
2018-05-06T02:45:44.473Z,99.90
2018-05-06T02:48:12.011Z,99.90
2018-05-06T02:50:40.405Z,99.90
2018-05-06T02:53:08.018Z,99.90
2018-05-06T02:55:35.577Z,99.90
2018-05-06T02:58:03.203Z,99.90
2018-05-06T03:00:30.797Z,99.90
2018-05-06T03:02:58.305Z,99.90
2018-05-06T03:05:25.841Z,99.90
2018-05-06T03:07:54.144Z,99.90
2018-05-06T03:10:22.481Z,99.90
2018-05-06T03:12:50.740Z,99.90
2018-05-06T03:15:18.259Z,99.90
2018-05-06T03:17:45.770Z,99.90
2018-05-06T03:20:14.051Z,99.90
2018-05-06T03:22:42.610Z,99.90
2018-05-06T03:25:11.113Z,99.90
2018-05-06T03:27:38.715Z,99.90
2018-05-06T03:30:06.206Z,99.90
2018-05-06T03:32:33.692Z,99.90
2018-05-06T03:35:02.004Z,99.90
2018-05-06T03:37:30.268Z,99.90
2018-05-06T03:39:57.919Z,99.90
2018-05-06T03:42:25.484Z,99.90
2018-05-06T03:44:53.068Z,99.90
2018-05-06T03:47:20.657Z,99.90
2018-05-06T03:49:48.230Z,99.90
2018-05-06T03:52:15.742Z,99.90
2018-05-06T03:54:43.254Z,99.90
2018-05-06T03:57:23.560Z,99.90
2018-05-06T04:00:02.932Z,99.90
2018-05-06T04:02:31.398Z,99.90
2018-05-06T04:04:58.957Z,99.90
2018-05-06T04:07:28.088Z,99.90
2018-05-06T04:09:56.375Z,99.90
2018-05-06T04:12:23.899Z,99.90
2018-05-06T04:14:51.401Z,99.90
2018-05-06T04:17:18.906Z,99.90
2018-05-06T04:19:46.418Z,99.90
2018-05-06T04:22:13.994Z,99.90
2018-05-06T04:27:16.442Z,99.90
2018-05-06T04:29:44.732Z,99.90
2018-05-06T04:32:12.379Z,99.90
2018-05-06T04:34:40.693Z,99.90
2018-05-06T04:37:08.198Z,99.90
2018-05-06T04:39:35.706Z,99.90
2018-05-06T04:42:03.246Z,99.90
2018-05-06T04:44:30.746Z,99.90
2018-05-06T04:46:58.426Z,99.90
2018-05-06T04:49:26.026Z,99.90
2018-05-06T04:51:53.552Z,99.90
2018-05-06T04:54:21.107Z,99.90
2018-05-06T04:56:48.650Z,99.90
2018-05-06T04:59:16.455Z,99.90
2018-05-06T05:01:44.063Z,99.90
2018-05-06T05:04:11.642Z,99.90
2018-05-06T05:06:39.159Z,99.90
2018-05-06T05:09:06.809Z,99.90
2018-05-06T05:11:34.450Z,99.90
2018-05-06T05:14:02.776Z,99.90
2018-05-06T05:16:30.326Z,99.90
2018-05-06T05:18:57.894Z,99.90
2018-05-06T05:21:25.497Z,99.90
2018-05-06T05:23:53.169Z,99.90
2018-05-06T05:26:20.863Z,99.90
2018-05-06T05:28:48.365Z,99.90
2018-05-06T05:31:15.859Z,99.90
2018-05-06T05:33:43.447Z,99.90
2018-05-06T05:36:10.946Z,99.90
2018-05-06T05:38:38.463Z,99.90
2018-05-06T05:41:05.967Z,99.90
2018-05-06T05:43:33.504Z,99.90
2018-05-06T05:46:01.042Z,99.90
2018-05-06T05:48:28.565Z,99.90
2018-05-06T05:50:56.147Z,99.90
2018-05-06T05:53:23.647Z,99.90
2018-05-06T05:55:51.141Z,99.90
2018-05-06T05:58:18.661Z,99.90
2018-05-06T06:00:46.938Z,99.90
2018-05-06T06:03:14.448Z,99.90
2018-05-06T06:05:41.959Z,99.90
2018-05-06T06:08:09.477Z,99.90
2018-05-06T06:10:36.985Z,99.90
2018-05-06T06:13:05.256Z,99.90
2018-05-06T06:15:33.557Z,99.90
2018-05-06T06:18:01.788Z,99.90
2018-05-06T06:20:29.924Z,99.90
2018-05-06T06:22:57.414Z,99.90
2018-05-06T06:25:25.012Z,99.90
2018-05-06T06:27:52.765Z,99.90
2018-05-06T06:30:21.555Z,99.90
2018-05-06T06:32:50.043Z,99.90
2018-05-06T06:35:17.725Z,99.90
2018-05-06T06:37:45.531Z,99.90
2018-05-06T06:40:13.279Z,99.90
2018-05-06T06:42:40.916Z,99.90
2018-05-06T06:45:08.409Z,99.90
2018-05-06T06:47:35.916Z,99.50
2018-05-06T06:50:03.467Z,99.40
2018-05-06T06:52:31.120Z,99.60
2018-05-06T06:54:58.639Z,99.60
2018-05-06T06:57:26.256Z,99.40
2018-05-06T06:59:54.534Z,98.90
2018-05-06T07:02:22.054Z,98.90
2018-05-06T07:04:49.640Z,98.70
2018-05-06T07:07:17.327Z,99.10
2018-05-06T07:09:45.066Z,98.70
2018-05-06T07:12:12.723Z,98.60
2018-05-06T07:14:41.142Z,97.90
2018-05-06T07:17:08.799Z,97.90
2018-05-06T07:19:37.260Z,97.60
2018-05-06T07:22:05.747Z,97.80
2018-05-06T07:24:33.296Z,97.80
2018-05-06T07:27:00.791Z,96.80
2018-05-06T07:29:28.383Z,96.40
2018-05-06T07:31:55.910Z,96.60
2018-05-06T07:34:23.435Z,96.60
2018-05-06T07:36:50.942Z,95.50
2018-05-06T07:39:18.439Z,95.50
2018-05-06T07:41:45.966Z,96.10
2018-05-06T07:44:13.996Z,95.40
2018-05-06T07:46:41.589Z,94.90
2018-05-06T07:49:09.195Z,94.90
2018-05-06T07:51:37.554Z,94.10
2018-05-06T07:54:05.361Z,94.10
2018-05-06T07:56:33.485Z,94.60
2018-05-06T07:59:01.178Z,93.60
2018-05-06T08:01:28.749Z,93.30
2018-05-06T08:03:56.250Z,93.70
2018-05-06T08:06:23.804Z,93.00
2018-05-06T08:08:53.396Z,93.40
2018-05-06T08:11:21.026Z,93.00
2018-05-06T08:13:48.582Z,92.50
2018-05-06T08:16:16.159Z,92.50
2018-05-06T08:18:46.527Z,92.00
2018-05-06T08:21:14.052Z,91.70
2018-05-06T08:23:41.577Z,90.90
2018-05-06T08:26:09.082Z,92.10
2018-05-06T08:28:36.577Z,91.10
2018-05-06T08:31:04.153Z,90.90
2018-05-06T08:33:31.645Z,91.10
2018-05-06T08:35:59.784Z,90.70
2018-05-06T08:38:27.411Z,90.00
2018-05-06T08:40:55.677Z,90.20
2018-05-06T08:43:23.192Z,90.20
2018-05-06T08:45:50.875Z,89.40
2018-05-06T08:48:18.636Z,86.40
2018-05-06T08:50:46.129Z,87.00
2018-05-06T08:53:13.645Z,86.10
2018-05-06T08:55:41.122Z,85.80
2018-05-06T08:58:08.665Z,87.20
2018-05-06T09:00:36.462Z,86.00
2018-05-06T09:03:04.111Z,85.20
2018-05-06T09:05:31.780Z,85.50
2018-05-06T09:08:00.081Z,84.30
2018-05-06T09:10:27.602Z,83.50
2018-05-06T09:12:55.894Z,80.10
2018-05-06T09:15:24.253Z,81.20
2018-05-06T09:17:52.696Z,80.90
2018-05-06T09:20:20.229Z,80.80
2018-05-06T09:22:47.729Z,81.80
2018-05-06T09:25:16.039Z,80.50
2018-05-06T09:27:43.701Z,80.50
2018-05-06T09:30:11.208Z,80.20
2018-05-06T09:32:38.716Z,79.30
2018-05-06T09:35:07.022Z,77.90
2018-05-06T09:37:34.572Z,77.90
2018-05-06T09:40:02.255Z,77.20
2018-05-06T09:42:29.815Z,77.50
2018-05-06T09:44:57.351Z,77.80
2018-05-06T09:47:24.974Z,77.10
2018-05-06T09:49:52.638Z,76.70
2018-05-06T09:52:20.175Z,76.30
2018-05-06T09:54:47.686Z,77.00
2018-05-06T09:57:15.387Z,77.20
2018-05-06T09:59:42.921Z,75.30
2018-05-06T10:02:10.542Z,75.40
2018-05-06T10:04:38.028Z,73.90
2018-05-06T10:07:05.560Z,75.40
2018-05-06T10:09:33.111Z,74.40
2018-05-06T10:12:00.597Z,73.20
2018-05-06T10:14:28.159Z,74.80
2018-05-06T10:16:55.745Z,74.50
2018-05-06T10:19:23.266Z,73.40
2018-05-06T10:21:51.609Z,72.50
2018-05-06T10:24:19.109Z,72.50
2018-05-06T10:26:46.622Z,73.40
2018-05-06T10:29:14.108Z,71.60
2018-05-06T10:31:41.594Z,73.80
2018-05-06T10:34:09.172Z,73.90
2018-05-06T10:36:36.688Z,70.70
2018-05-06T10:39:04.229Z,70.10
2018-05-06T10:41:31.759Z,69.90
2018-05-06T10:44:00.762Z,70.00
2018-05-06T10:46:28.230Z,69.90
2018-05-06T10:48:56.431Z,69.10
2018-05-06T10:51:24.710Z,67.90
2018-05-06T10:53:52.211Z,67.90
2018-05-06T10:56:19.757Z,69.10
2018-05-06T10:58:47.282Z,67.20
2018-05-06T11:01:14.813Z,67.60
2018-05-06T11:03:42.375Z,69.00
2018-05-06T11:06:09.901Z,67.00
2018-05-06T11:08:37.393Z,66.70
2018-05-06T11:11:05.670Z,68.90
2018-05-06T11:13:33.180Z,69.00
2018-05-06T11:16:00.732Z,66.80
2018-05-06T11:18:28.237Z,68.40
2018-05-06T11:20:56.528Z,67.50
2018-05-06T11:23:24.076Z,67.50
2018-05-06T11:25:51.587Z,65.10
2018-05-06T11:28:19.089Z,65.30
2018-05-06T11:30:46.589Z,65.50
2018-05-06T11:33:14.168Z,65.00
2018-05-06T11:35:41.695Z,64.00
2018-05-06T11:38:09.186Z,63.10
2018-05-06T11:40:36.893Z,62.90
2018-05-06T11:43:05.269Z,62.20
2018-05-06T11:45:33.571Z,64.10
2018-05-06T11:48:01.867Z,64.10
2018-05-06T11:50:29.349Z,62.80
2018-05-06T11:52:56.859Z,64.00
2018-05-06T11:55:24.349Z,64.10
2018-05-06T11:57:51.946Z,63.20
2018-05-06T12:00:19.514Z,60.20
2018-05-06T12:02:47.782Z,60.90
2018-05-06T12:05:15.280Z,60.90
2018-05-06T12:07:42.786Z,59.50
2018-05-06T12:10:10.342Z,59.80
2018-05-06T12:12:37.955Z,63.50
2018-05-06T12:15:05.652Z,60.70
2018-05-06T12:17:33.350Z,60.50
2018-05-06T12:20:01.663Z,59.60
2018-05-06T12:22:29.155Z,59.60
2018-05-06T12:24:56.663Z,58.40
2018-05-06T12:27:24.188Z,58.80
2018-05-06T12:29:52.471Z,59.20
2018-05-06T12:32:20.747Z,58.50
2018-05-06T12:34:49.033Z,57.70
2018-05-06T12:37:17.305Z,58.00
2018-05-06T12:39:45.927Z,57.80
2018-05-06T12:42:13.481Z,57.80
2018-05-06T12:44:40.972Z,58.60
2018-05-06T12:47:08.718Z,57.80
2018-05-06T12:49:36.305Z,56.40
2018-05-06T12:52:03.729Z,57.20
2018-05-06T12:54:31.240Z,57.40
2018-05-06T12:56:59.493Z,56.80
2018-05-06T12:59:27.008Z,56.70
2018-05-06T13:01:57.581Z,57.30
2018-05-06T13:04:26.464Z,57.40
2018-05-06T13:06:54.911Z,57.10
2018-05-06T13:09:22.566Z,57.00
2018-05-06T13:11:50.315Z,57.40
2018-05-06T13:14:18.471Z,56.10
2018-05-06T13:16:46.518Z,56.60
2018-05-06T13:19:14.010Z,54.90
2018-05-06T13:21:41.517Z,55.10
2018-05-06T13:24:09.061Z,56.50
2018-05-06T13:26:36.644Z,55.10
2018-05-06T13:29:04.154Z,54.50
2018-05-06T13:31:31.665Z,55.20
2018-05-06T13:33:59.161Z,54.30
2018-05-06T13:36:26.709Z,54.10
2018-05-06T13:38:54.229Z,54.60
2018-05-06T13:41:21.813Z,54.00
2018-05-06T13:43:50.088Z,53.20
2018-05-06T13:46:17.828Z,53.20
2018-05-06T13:48:45.474Z,53.60
2018-05-06T13:51:12.982Z,53.40
2018-05-06T13:53:40.484Z,52.70
2018-05-06T13:56:08.004Z,52.90
2018-05-06T13:58:35.906Z,52.50
2018-05-06T14:01:03.421Z,53.30
2018-05-06T14:03:31.684Z,52.40
2018-05-06T14:05:59.952Z,52.60
2018-05-06T14:08:27.440Z,52.60
2018-05-06T14:10:54.934Z,52.00
2018-05-06T14:13:22.439Z,51.60
2018-05-06T14:15:51.173Z,51.60
2018-05-06T14:18:18.703Z,51.60
2018-05-06T14:20:46.193Z,51.50
2018-05-06T14:23:13.686Z,51.40
2018-05-06T14:25:41.959Z,50.90
2018-05-06T14:28:09.456Z,50.90
2018-05-06T14:30:36.940Z,50.60
2018-05-06T14:33:04.445Z,51.10
2018-05-06T14:35:32.754Z,51.30
2018-05-06T14:38:00.248Z,51.20
2018-05-06T14:40:27.758Z,51.20
2018-05-06T14:42:55.251Z,50.50
2018-05-06T14:45:23.749Z,50.00
2018-05-06T14:48:03.021Z,50.80
2018-05-06T14:50:30.537Z,50.00
2018-05-06T14:52:58.166Z,51.00
2018-05-06T14:55:25.681Z,52.10
2018-05-06T14:57:53.957Z,51.50
2018-05-06T15:00:22.290Z,51.00
2018-05-06T15:02:50.604Z,49.50
2018-05-06T15:05:18.883Z,41.90
2018-05-06T15:07:47.152Z,44.20
2018-05-06T15:10:15.405Z,42.00
2018-05-06T15:12:42.904Z,42.00
2018-05-06T15:15:10.423Z,42.10
2018-05-06T15:17:38.019Z,40.70
2018-05-06T15:20:05.572Z,42.00
2018-05-06T15:22:33.215Z,38.90
2018-05-06T15:25:00.716Z,38.30
2018-05-06T15:27:28.988Z,41.70
2018-05-06T15:29:56.583Z,41.70
2018-05-06T15:32:24.096Z,40.60
2018-05-06T15:34:51.703Z,38.20
2018-05-06T15:37:19.196Z,43.00
2018-05-06T15:39:47.455Z,43.20
2018-05-06T15:42:14.971Z,43.20
2018-05-06T15:44:42.472Z,41.00
2018-05-06T15:47:10.737Z,41.00
2018-05-06T15:49:38.262Z,40.40
2018-05-06T15:52:05.746Z,40.10
2018-05-06T15:54:33.256Z,40.30
2018-05-06T15:57:00.768Z,40.10
2018-05-06T15:59:28.259Z,41.40
2018-05-06T16:02:06.438Z,42.90
2018-05-06T16:04:33.928Z,44.60
2018-05-06T16:07:01.505Z,43.00
2018-05-06T16:09:29.008Z,43.50
2018-05-06T16:11:56.639Z,44.30
2018-05-06T16:14:24.068Z,44.40
2018-05-06T16:16:51.564Z,43.90
2018-05-06T16:19:19.049Z,42.90
2018-05-06T16:21:46.596Z,44.10
2018-05-06T16:24:14.274Z,45.20
2018-05-06T16:26:41.832Z,45.20
2018-05-06T16:29:10.141Z,47.60
2018-05-06T16:31:39.163Z,45.20
2018-05-06T16:34:06.866Z,46.80
2018-05-06T16:36:34.765Z,45.70
2018-05-06T16:39:03.890Z,45.30
2018-05-06T16:41:32.778Z,48.40
2018-05-06T16:44:01.249Z,46.90
2018-05-06T16:46:28.961Z,45.20
2018-05-06T16:48:57.235Z,46.80
2018-05-06T16:51:25.863Z,45.80
2018-05-06T16:53:54.303Z,45.00
2018-05-06T16:56:23.232Z,44.60
2018-05-06T16:58:51.315Z,44.60
2018-05-06T17:01:18.999Z,44.80
2018-05-06T17:03:47.148Z,44.50
2018-05-06T17:06:14.742Z,44.80
2018-05-06T17:08:43.117Z,44.90
2018-05-06T17:11:10.781Z,44.90
2018-05-06T17:13:38.660Z,43.60
2018-05-06T17:16:07.026Z,43.70
2018-05-06T17:18:35.162Z,43.70
2018-05-06T17:21:03.105Z,43.60
2018-05-06T17:23:30.629Z,43.40
2018-05-06T17:25:59.087Z,43.50
2018-05-06T17:28:27.470Z,43.20
2018-05-06T17:30:55.843Z,42.30
2018-05-06T17:33:23.340Z,43.00
2018-05-06T17:35:51.601Z,42.70
2018-05-06T17:38:19.892Z,44.20
2018-05-06T17:40:47.414Z,44.20
2018-05-06T17:43:14.986Z,43.00
2018-05-06T17:45:43.251Z,43.40
2018-05-06T17:48:11.558Z,43.80
2018-05-06T17:50:39.826Z,43.40
2018-05-06T17:53:07.777Z,43.40
2018-05-06T17:55:35.317Z,43.30
2018-05-06T17:58:02.857Z,43.80
2018-05-06T18:00:30.369Z,43.40
2018-05-06T18:02:58.676Z,42.50
2018-05-06T18:05:26.180Z,42.40
2018-05-06T18:07:53.686Z,42.70
2018-05-06T18:10:21.187Z,43.70
2018-05-06T18:12:48.744Z,43.20
2018-05-06T18:15:16.253Z,43.70
2018-05-06T18:17:43.773Z,43.40
2018-05-06T18:20:11.292Z,42.60
2018-05-06T18:22:38.961Z,43.00
2018-05-06T18:25:07.221Z,42.40
2018-05-06T18:27:34.727Z,42.40
2018-05-06T18:30:02.229Z,42.70
2018-05-06T18:32:29.760Z,43.10
2018-05-06T18:34:58.003Z,42.80
2018-05-06T18:37:25.476Z,42.80
2018-05-06T18:39:53.761Z,45.00
2018-05-06T18:42:22.043Z,44.70
2018-05-06T18:44:49.674Z,44.60
2018-05-06T18:47:17.180Z,44.90
2018-05-06T18:49:44.829Z,44.70
2018-05-06T18:52:13.100Z,45.40
2018-05-06T18:54:41.393Z,46.30
2018-05-06T18:57:08.927Z,46.30
2018-05-06T18:59:37.203Z,46.80
2018-05-06T19:02:05.489Z,47.80
2018-05-06T19:04:33.801Z,46.30
2018-05-06T19:07:01.323Z,46.30
2018-05-06T19:09:28.806Z,47.00
2018-05-06T19:11:56.293Z,46.40
2018-05-06T19:14:23.811Z,47.10
2018-05-06T19:16:51.392Z,46.70
2018-05-06T19:19:18.868Z,47.70
2018-05-06T19:21:46.410Z,47.80
2018-05-06T19:24:13.910Z,47.50
2018-05-06T19:26:42.337Z,48.30
2018-05-06T19:29:09.781Z,47.80
2018-05-06T19:31:37.499Z,47.60
2018-05-06T19:34:05.126Z,47.90
2018-05-06T19:36:33.462Z,48.00
2018-05-06T19:39:04.414Z,46.80
2018-05-06T19:41:32.455Z,46.80
2018-05-06T19:44:00.000Z,46.50
2018-05-06T19:46:28.767Z,47.00
2018-05-06T19:48:56.376Z,47.50
2018-05-06T19:51:24.212Z,47.10
2018-05-06T19:53:55.605Z,46.40
2018-05-06T19:56:23.203Z,46.40
2018-05-06T19:58:50.726Z,46.70
2018-05-06T20:01:18.355Z,46.60
2018-05-06T20:03:46.399Z,46.70
2018-05-06T20:06:14.209Z,46.10
2018-05-06T20:08:42.285Z,46.50
2018-05-06T20:11:09.904Z,46.10
2018-05-06T20:13:37.521Z,45.00
2018-05-06T20:16:05.021Z,45.50
2018-05-06T20:18:32.609Z,46.10
2018-05-06T20:21:01.704Z,45.60
2018-05-06T20:23:29.355Z,45.60
2018-05-06T20:25:56.919Z,45.00
2018-05-06T20:28:25.703Z,45.30
2018-05-06T20:30:56.027Z,45.30
2018-05-06T20:33:25.474Z,45.20
2018-05-06T20:35:53.198Z,45.20
2018-05-06T20:38:21.651Z,45.20
2018-05-06T20:40:56.510Z,45.50
2018-05-06T20:43:31.094Z,45.50
2018-05-06T20:46:03.704Z,45.90
2018-05-06T20:48:32.804Z,46.20
2018-05-06T20:51:02.944Z,46.70
2018-05-06T20:53:31.970Z,47.20
2018-05-06T20:55:59.696Z,48.20
2018-05-06T20:58:27.190Z,49.00
2018-05-06T21:00:55.157Z,49.30
2018-05-06T21:03:22.862Z,48.20
2018-05-06T21:05:51.237Z,47.80
2018-05-06T21:08:19.140Z,48.60
2018-05-06T21:10:46.948Z,48.10
2018-05-06T21:13:14.615Z,47.60
2018-05-06T21:15:42.314Z,48.10
2018-05-06T21:18:09.806Z,47.10
2018-05-06T21:20:37.455Z,46.90
2018-05-06T21:23:05.071Z,46.80
2018-05-06T21:25:32.800Z,46.70
2018-05-06T21:28:00.296Z,46.50
2018-05-06T21:30:28.234Z,45.90
2018-05-06T21:32:55.731Z,45.80
2018-05-06T21:35:26.529Z,46.00
2018-05-06T21:37:54.136Z,46.10
2018-05-06T21:40:21.719Z,45.70
2018-05-06T21:42:49.992Z,46.50
2018-05-06T21:45:18.147Z,45.70
2018-05-06T21:47:45.930Z,46.10
2018-05-06T21:50:13.570Z,45.50
2018-05-06T21:52:41.187Z,45.10
2018-05-06T21:55:09.157Z,45.20
2018-05-06T21:57:37.774Z,45.00
2018-05-06T22:00:05.386Z,45.00
2018-05-06T22:02:32.985Z,44.60
2018-05-06T22:05:00.466Z,44.80
2018-05-06T22:07:28.052Z,44.80
2018-05-06T22:09:56.405Z,44.10
2018-05-06T22:12:23.933Z,44.10
2018-05-06T22:14:51.386Z,43.60
2018-05-06T22:17:18.905Z,43.80
2018-05-06T22:19:46.409Z,43.30
2018-05-06T22:22:13.883Z,43.50
2018-05-06T22:24:41.479Z,43.50
2018-05-06T22:27:08.956Z,43.90
2018-05-06T22:29:37.245Z,43.60
2018-05-06T22:32:05.455Z,43.40
2018-05-06T22:34:32.926Z,43.40
2018-05-06T22:37:00.905Z,43.90
2018-05-06T22:39:29.170Z,43.30
2018-05-06T22:41:56.710Z,43.20
2018-05-06T22:44:24.153Z,43.30
2018-05-06T22:46:52.544Z,42.90
2018-05-06T22:49:20.017Z,42.90
2018-05-06T22:51:47.549Z,43.10
2018-05-06T22:54:14.947Z,43.10
2018-05-06T22:56:43.329Z,42.80
2018-05-06T22:59:10.815Z,42.90
2018-05-06T23:01:38.309Z,42.10
2018-05-06T23:04:05.767Z,42.90
2018-05-06T23:06:33.222Z,42.20
2018-05-06T23:09:00.735Z,42.30
2018-05-06T23:11:28.961Z,42.50
2018-05-06T23:13:56.414Z,42.50
2018-05-06T23:16:23.940Z,42.10
2018-05-06T23:18:52.188Z,42.30
2018-05-06T23:21:19.649Z,42.20
2018-05-06T23:23:47.906Z,42.80
2018-05-06T23:26:15.317Z,42.80
2018-05-06T23:28:42.791Z,42.60
2018-05-06T23:31:10.264Z,42.60
2018-05-06T23:33:37.725Z,42.90
2018-05-06T23:36:05.243Z,43.00
2018-05-06T23:38:33.458Z,42.80
2018-05-06T23:41:00.898Z,42.70
2018-05-06T23:43:28.372Z,42.60
2018-05-06T23:45:55.840Z,42.10
2018-05-06T23:48:23.302Z,42.20
2018-05-06T23:50:50.774Z,42.50
2018-05-06T23:53:20.193Z,42.50
2018-05-06T23:55:47.644Z,42.70
2018-05-06T23:58:15.255Z,42.20
